Time;durP1;ratioP1;P1;durP2;ratioP2;P2;SDS_P1;SDS_P2;PMS_P1;PMS_P2;Temp;Humidity;BMP_temperature;BMP_pressure;BME280_temperature;BME280_humidity;BME280_pressure;Samples;Min_cycle;Max_cycle;Signal;HPM_P1;HPM_P2
2022/09/04 00:02:20;;;;;;;5.68;2.28;;;17.40;89.90;;;;;;5014564;28;20052;-70
2022/09/04 00:05:13;;;;;;;4.75;2.13;;;17.40;89.90;;;;;;5014723;28;20053;-71
2022/09/04 00:07:55;;;;;;;4.10;2.20;;;17.30;90.10;;;;;;5014510;28;20053;-70
2022/09/04 00:10:40;;;;;;;3.33;2.00;;;17.30;90.30;;;;;;5014689;28;20136;-71
2022/09/04 00:13:11;;;;;;;;;;;17.30;90.20;;;;;;5032797;28;20186;-70
2022/09/04 00:15:52;;;;;;;4.80;2.05;;;17.20;90.30;;;;;;5013910;28;19951;-70
2022/09/04 00:18:34;;;;;;;4.97;2.10;;;17.20;90.30;;;;;;5032212;28;20049;-71
2022/09/04 00:21:08;;;;;;;3.97;2.05;;;17.20;90.20;;;;;;4998485;28;20038;-72
2022/09/04 00:23:49;;;;;;;5.00;2.10;;;17.10;90.30;;;;;;5014403;28;20100;-71
2022/09/04 00:26:51;;;;;;;3.80;1.88;;;17.10;90.30;;;;;;4997934;28;20049;-70
2022/09/04 00:29:35;;;;;;;3.17;1.95;;;17.10;90.30;;;;;;5014788;28;20045;-70
2022/09/04 00:32:12;;;;;;;3.20;1.88;;;17.00;90.20;;;;;;5014625;28;20056;-71
2022/09/04 00:34:44;;;;;;;3.67;1.80;;;17.00;90.20;;;;;;5006133;28;20223;-71
2022/09/04 00:37:15;;;;;;;4.07;2.15;;;16.90;90.30;;;;;;5031916;28;20096;-71
2022/09/04 00:39:51;;;;;;;4.90;2.30;;;16.90;90.30;;;;;;5014180;28;20077;-71
2022/09/04 00:42:38;;;;;;;5.25;2.40;;;16.90;90.30;;;;;;5014777;28;20057;-71
2022/09/04 00:45:48;;;;;;;3.75;1.90;;;16.90;90.40;;;;;;4998256;28;20406;-70
2022/09/04 00:48:35;;;;;;;5.50;2.15;;;16.90;90.40;;;;;;4951146;29;20051;-70
2022/09/04 00:51:10;;;;;;;3.78;1.90;;;16.80;90.40;;;;;;4992885;28;20057;-71
2022/09/04 00:54:17;;;;;;;6.25;2.00;;;16.80;90.40;;;;;;5013558;28;20049;-71
2022/09/04 00:56:42;;;;;;;4.13;2.17;;;16.80;90.40;;;;;;5014855;28;20057;-70
2022/09/04 00:59:44;;;;;;;3.67;1.85;;;16.80;90.40;;;;;;5031788;28;20049;-70
2022/09/04 01:02:34;;;;;;;4.32;2.10;;;16.80;90.40;;;;;;5031908;28;20050;-69
2022/09/04 01:05:19;;;;;;;4.55;2.08;;;16.70;90.60;;;;;;5014371;28;20152;-70
2022/09/04 01:08:14;;;;;;;4.00;1.85;;;16.70;90.50;;;;;;5014834;28;20307;-69
2022/09/04 01:10:43;;;;;;;4.50;2.03;;;16.70;90.60;;;;;;5017649;28;20053;-71
2022/09/04 01:13:19;;;;;;;5.72;2.15;;;16.70;90.60;;;;;;5001887;28;20057;-70
2022/09/04 01:16:00;;;;;;;4.72;1.92;;;16.60;90.50;;;;;;5035547;28;20052;-70
2022/09/04 01:18:33;;;;;;;4.65;2.08;;;16.60;90.60;;;;;;5035764;28;20136;-71
2022/09/04 01:21:11;;;;;;;4.88;2.22;;;16.60;90.50;;;;;;5001741;28;20109;-71
2022/09/04 01:23:58;;;;;;;2.75;1.73;;;16.60;90.60;;;;;;5017872;28;20112;-70
2022/09/04 01:27:08;;;;;;;3.83;1.92;;;16.60;90.70;;;;;;5035509;28;20056;-71
2022/09/04 01:30:06;;;;;;;4.30;2.00;;;16.50;90.70;;;;;;4954299;29;20560;-71
2022/09/04 01:33:06;;;;;;;5.57;2.25;;;16.50;90.80;;;;;;4938392;29;20051;-70
2022/09/04 01:36:02;;;;;;;7.78;2.10;;;16.50;90.70;;;;;;5014286;28;20057;-70
2022/09/04 01:38:55;;;;;;;3.17;2.00;;;16.50;90.90;;;;;;5035102;28;20128;-70
2022/09/04 01:41:37;;;;;;;5.10;2.20;;;16.40;91.10;;;;;;5035361;28;20394;-70
2022/09/04 01:44:07;;;;;;;3.65;1.98;;;16.40;91.00;;;;;;5017725;28;20053;-70
2022/09/04 01:46:46;;;;;;;5.68;2.20;;;16.40;90.90;;;;;;5017267;28;20598;-70
2022/09/04 01:49:35;;;;;;;4.20;2.05;;;16.40;91.00;;;;;;5035063;28;20431;-69
2022/09/04 01:52:07;;;;;;;7.65;2.28;;;16.30;91.10;;;;;;5017312;28;20049;-71
2022/09/04 01:54:41;;;;;;;5.18;2.22;;;16.30;91.10;;;;;;5017217;28;20184;-70
2022/09/04 01:57:30;;;;;;;3.70;2.03;;;16.30;91.10;;;;;;5017228;28;20046;-70
2022/09/04 02:00:17;;;;;;;4.85;2.30;;;16.30;91.10;;;;;;5009116;28;20053;-70
2022/09/04 02:03:07;;;;;;;4.60;1.90;;;16.20;91.00;;;;;;5021237;28;20107;-70
2022/09/04 02:06:00;;;;;;;5.18;2.63;;;16.10;91.40;;;;;;5020080;28;20064;-70
2022/09/04 02:08:38;;;;;;;3.97;2.10;;;16.10;91.50;;;;;;5036873;28;20461;-70
2022/09/04 02:11:14;;;;;;;5.15;2.13;;;16.10;91.80;;;;;;5020456;28;20136;-71
2022/09/04 02:14:05;;;;;;;3.78;2.25;;;15.90;91.70;;;;;;5054736;28;20053;-71
2022/09/04 02:17:11;;;;;;;4.72;2.00;;;15.90;91.80;;;;;;5036522;28;20048;-69
2022/09/04 02:19:52;;;;;;;4.95;2.30;;;15.90;91.90;;;;;;4972340;28;20054;-69
2022/09/04 02:22:32;;;;;;;5.15;1.90;;;15.80;91.90;;;;;;4973211;28;20046;-70
2022/09/04 02:25:14;;;;;;;2.88;1.90;;;15.80;92.00;;;;;;5027821;28;20099;-69
2022/09/04 02:27:45;;;;;;;4.63;2.00;;;15.80;92.00;;;;;;5019566;28;20057;-71
2022/09/04 02:30:15;;;;;;;4.13;2.20;;;15.70;92.00;;;;;;5036778;28;20088;-70
2022/09/04 02:33:09;;;;;;;5.82;2.45;;;15.70;92.10;;;;;;5036060;28;20049;-70
2022/09/04 02:35:50;;;;;;;5.45;2.10;;;15.60;92.20;;;;;;5036361;28;20211;-71
2022/09/04 02:38:25;;;;;;;5.88;2.20;;;15.60;92.20;;;;;;5054034;28;20051;-69
2022/09/04 02:41:19;;;;;;;7.60;2.22;;;15.60;92.30;;;;;;5035914;28;20080;-69
2022/09/04 02:44:16;;;;;;;5.70;2.45;;;15.50;92.50;;;;;;5035900;28;20414;-69
2022/09/04 02:47:00;;;;;;;5.05;1.98;;;15.50;92.60;;;;;;5035547;28;20483;-70
2022/09/04 02:49:51;;;;;;;6.00;1.92;;;15.50;92.70;;;;;;5036446;28;20045;-69
2022/09/04 02:52:32;;;;;;;4.05;2.30;;;15.50;92.80;;;;;;5019865;28;20394;-70
2022/09/04 02:55:00;;;;;;;5.75;2.67;;;15.40;92.90;;;;;;5035974;28;20053;-70
2022/09/04 02:57:56;;;;;;;5.43;2.35;;;15.40;92.90;;;;;;5036062;28;20135;-70
2022/09/04 03:01:00;;;;;;;5.05;2.20;;;15.30;93.30;;;;;;5053710;28;20103;-69
2022/09/04 03:03:44;;;;;;;5.20;2.38;;;15.30;93.00;;;;;;5053456;28;20053;-69
2022/09/04 03:06:21;;;;;;;4.88;2.50;;;15.20;93.00;;;;;;5036187;28;20045;-70
2022/09/04 03:09:03;;;;;;;5.25;2.13;;;15.20;93.10;;;;;;5019079;28;20127;-71
2022/09/04 03:11:35;;;;;;;4.03;2.10;;;15.20;93.20;;;;;;5036007;28;20056;-70
2022/09/04 03:14:13;;;;;;;5.00;2.30;;;15.10;93.10;;;;;;5018897;28;20071;-70
2022/09/04 03:16:56;;;;;;;5.75;2.03;;;15.10;93.30;;;;;;5019454;28;20131;-70
2022/09/04 03:19:47;;;;;;;4.47;2.00;;;15.10;93.30;;;;;;5035595;28;20541;-70
2022/09/04 03:22:25;;;;;;;5.45;2.38;;;15.10;93.50;;;;;;5035469;28;20040;-69
2022/09/04 03:25:22;;;;;;;4.15;2.10;;;15.10;93.50;;;;;;5035331;28;20058;-69
2022/09/04 03:27:48;;;;;;;5.53;2.15;;;15.00;93.60;;;;;;5018879;28;20057;-70
2022/09/04 03:30:14;;;;;;;5.68;2.63;;;15.00;93.50;;;;;;5018050;28;20095;-70
2022/09/04 03:33:02;;;;;;;4.32;2.28;;;15.00;93.60;;;;;;5035177;28;20053;-71
2022/09/04 03:35:39;;;;;;;5.30;2.47;;;14.90;93.60;;;;;;5035756;28;20406;-69
2022/09/04 03:38:05;;;;;;;10.80;3.35;;;14.90;93.70;;;;;;5018623;28;20104;-69
2022/09/04 03:40:40;;;;;;;4.35;2.30;;;14.90;93.80;;;;;;5035111;28;20053;-68
2022/09/04 03:43:12;;;;;;;4.07;2.20;;;14.90;93.60;;;;;;5052722;28;20076;-69
2022/09/04 03:46:04;;;;;;;6.25;2.47;;;14.80;93.70;;;;;;5035267;28;20099;-69
2022/09/04 03:49:06;;;;;;;4.38;2.35;;;14.80;93.60;;;;;;5021193;28;20056;-69
2022/09/04 03:51:50;;;;;;;6.25;2.35;;;14.80;93.80;;;;;;5018548;28;20132;-69
2022/09/04 03:54:37;;;;;;;5.60;2.45;;;14.80;94.00;;;;;;5034925;28;20041;-69
2022/09/04 03:57:34;;;;;;;6.55;2.20;;;14.70;94.40;;;;;;5034622;28;20175;-70
2022/09/04 04:00:08;;;;;;;4.18;2.20;;;14.70;94.10;;;;;;5018206;28;20053;-69
2022/09/04 04:03:22;;;;;;;4.28;2.20;;;14.70;94.20;;;;;;5034561;28;20246;-68
2022/09/04 04:05:55;;;;;;;8.05;2.75;;;14.60;94.30;;;;;;4990472;28;20486;-71
2022/09/04 04:08:44;;;;;;;5.23;2.53;;;14.70;94.30;;;;;;5034924;28;20053;-69
2022/09/04 04:11:37;;;;;;;4.53;2.60;;;14.60;94.20;;;;;;5052451;28;20095;-69
2022/09/04 04:14:30;;;;;;;5.35;2.30;;;14.60;94.10;;;;;;5018068;28;20059;-70
2022/09/04 04:17:25;;;;;;;6.20;2.40;;;14.50;94.50;;;;;;5034416;28;20048;-70
2022/09/04 04:20:04;;;;;;;6.60;2.50;;;14.50;94.50;;;;;;5034018;28;20474;-70
2022/09/04 04:22:43;;;;;;;4.30;2.20;;;14.50;94.50;;;;;;5034423;28;20055;-69
2022/09/04 04:25:33;;;;;;;5.72;2.47;;;14.40;94.40;;;;;;5034083;28;20055;-69
2022/09/04 04:28:23;;;;;;;7.45;2.63;;;14.40;94.40;;;;;;5034142;28;20056;-70
2022/09/04 04:30:51;;;;;;;4.72;2.70;;;14.40;94.40;;;;;;5018150;28;20100;-69
2022/09/04 04:33:36;;;;;;;4.53;2.40;;;14.40;94.30;;;;;;5034112;28;20044;-69
2022/09/04 04:36:01;;;;;;;;;;;14.30;94.40;;;;;;5034634;28;20049;-69
2022/09/04 04:38:48;;;;;;;3.83;2.30;;;14.30;94.40;;;;;;5018035;28;19969;-70
2022/09/04 04:41:27;;;;;;;5.50;2.75;;;14.30;94.40;;;;;;5051329;28;20107;-70
2022/09/04 04:43:56;;;;;;;4.38;2.53;;;14.30;94.50;;;;;;5033786;28;20045;-70
2022/09/04 04:46:44;;;;;;;4.15;2.47;;;14.30;94.40;;;;;;5017723;28;20430;-69
2022/09/04 04:49:32;;;;;;;6.45;2.20;;;14.30;94.60;;;;;;5033543;28;20394;-69
2022/09/04 04:52:15;;;;;;;3.65;2.33;;;14.30;94.50;;;;;;5017625;28;20049;-70
2022/09/04 04:55:12;;;;;;;4.28;2.22;;;14.30;94.70;;;;;;5034288;28;20127;-70
2022/09/04 04:57:52;;;;;;;4.57;2.45;;;14.30;94.60;;;;;;5051736;28;20054;-69
2022/09/04 05:00:31;;;;;;;3.50;2.33;;;14.30;94.80;;;;;;5017431;28;20418;-69
2022/09/04 05:03:19;;;;;;;4.68;2.55;;;14.40;94.70;;;;;;5033362;28;20049;-70
2022/09/04 05:05:59;;;;;;;6.70;2.60;;;14.40;94.80;;;;;;5034121;28;20055;-70
2022/09/04 05:08:56;;;;;;;5.28;2.65;;;14.40;94.80;;;;;;5034161;28;20376;-69
2022/09/04 05:11:39;;;;;;;4.25;2.58;;;14.40;94.80;;;;;;5051534;28;20041;-71
2022/09/04 05:14:17;;;;;;;8.07;2.65;;;14.40;95.10;;;;;;5051156;28;20045;-69
2022/09/04 05:17:05;;;;;;;6.53;2.40;;;14.40;95.20;;;;;;5033893;28;20051;-70
2022/09/04 05:20:08;;;;;;;4.63;2.63;;;14.40;95.20;;;;;;5051494;28;20092;-70
2022/09/04 05:22:41;;;;;;;7.13;2.60;;;14.50;95.10;;;;;;5033926;28;20047;-70
2022/09/04 05:25:15;;;;;;;4.20;2.40;;;14.50;95.30;;;;;;5033450;28;20050;-70
2022/09/04 05:28:16;;;;;;;4.27;2.80;;;14.60;95.20;;;;;;5033711;28;20052;-70
2022/09/04 05:30:58;;;;;;;4.13;2.30;;;14.60;95.20;;;;;;5033708;28;20151;-70
2022/09/04 05:33:58;;;;;;;5.13;2.30;;;14.50;95.30;;;;;;5033684;28;20155;-70
2022/09/04 05:36:48;;;;;;;5.00;2.50;;;14.60;95.40;;;;;;5033674;28;20482;-70
2022/09/04 05:39:17;;;;;;;6.35;2.47;;;14.60;95.50;;;;;;5033521;28;20057;-70
2022/09/04 05:41:56;;;;;;;4.53;2.33;;;14.60;95.40;;;;;;5033427;28;20072;-70
2022/09/04 05:44:33;;;;;;;4.30;2.42;;;14.70;95.50;;;;;;5033072;28;20044;-69
2022/09/04 05:47:26;;;;;;;6.25;2.55;;;14.90;95.40;;;;;;5033717;28;20136;-70
2022/09/04 05:50:19;;;;;;;6.28;2.58;;;15.10;95.40;;;;;;5033566;28;20407;-69
2022/09/04 05:52:59;;;;;;;4.57;2.40;;;15.50;95.30;;;;;;5017157;28;20052;-70
2022/09/04 05:55:52;;;;;;;4.72;2.63;;;16.30;95.00;;;;;;5020349;28;20056;-70
2022/09/04 05:58:48;;;;;;;5.10;2.33;;;16.90;93.30;;;;;;5036505;28;20041;-70
2022/09/04 06:01:38;;;;;;;5.50;2.65;;;17.40;92.60;;;;;;5053805;28;20041;-69
2022/09/04 06:04:28;;;;;;;3.20;2.20;;;17.70;92.40;;;;;;5036247;28;20056;-70
2022/09/04 06:07:16;;;;;;;3.90;2.42;;;17.90;91.70;;;;;;5054939;28;20049;-69
2022/09/04 06:10:06;;;;;;;4.63;2.40;;;18.40;92.20;;;;;;5020556;28;20099;-70
2022/09/04 06:12:44;;;;;;;6.57;2.80;;;18.90;91.10;;;;;;5036737;28;20390;-70
2022/09/04 06:15:14;;;;;;;4.13;2.40;;;19.00;90.60;;;;;;5036740;28;20045;-69
2022/09/04 06:18:20;;;;;;;6.28;2.47;;;18.70;91.00;;;;;;5036827;28;20048;-70
2022/09/04 06:21:02;;;;;;;4.40;2.40;;;18.50;90.60;;;;;;5013684;28;20293;-69
2022/09/04 06:24:07;;;;;;;5.68;2.50;;;18.00;90.90;;;;;;5020272;28;20049;-69
2022/09/04 06:26:43;;;;;;;5.22;2.40;;;17.80;91.20;;;;;;5036881;28;20131;-69
2022/09/04 06:29:27;;;;;;;3.50;2.60;;;17.60;91.40;;;;;;5036404;28;20053;-70
2022/09/04 06:32:12;;;;;;;7.18;2.70;;;17.40;91.50;;;;;;5036763;28;20045;-70
2022/09/04 06:35:10;;;;;;;6.40;2.50;;;17.10;91.80;;;;;;5054332;28;20128;-70
2022/09/04 06:38:01;;;;;;;4.93;2.58;;;17.00;92.10;;;;;;4986556;28;20455;-69
2022/09/04 06:40:42;;;;;;;3.92;2.30;;;17.00;92.20;;;;;;5019529;28;20064;-69
2022/09/04 06:43:13;;;;;;;4.65;2.60;;;16.90;92.30;;;;;;5036082;28;20103;-69
2022/09/04 06:46:06;;;;;;;5.72;2.47;;;16.70;92.40;;;;;;5036093;28;20084;-69
2022/09/04 06:48:49;;;;;;;5.47;2.40;;;16.70;92.50;;;;;;5035498;28;20048;-69
2022/09/04 06:51:27;;;;;;;5.13;2.50;;;16.70;92.30;;;;;;5036014;28;20049;-70
2022/09/04 06:54:29;;;;;;;3.95;2.67;;;16.70;92.30;;;;;;5019431;28;20053;-69
2022/09/04 06:57:24;;;;;;;6.68;2.35;;;16.70;92.40;;;;;;5036223;28;20072;-68
2022/09/04 07:00:10;;;;;;;5.47;2.90;;;16.70;92.50;;;;;;5053772;28;20048;-70
2022/09/04 07:03:00;;;;;;;3.83;2.67;;;16.70;92.80;;;;;;5035884;28;20053;-70
2022/09/04 07:05:53;;;;;;;3.92;2.80;;;16.70;92.80;;;;;;5035104;28;20048;-71
2022/09/04 07:08:34;;;;;;;8.23;2.75;;;16.70;92.90;;;;;;5035792;28;20548;-70
2022/09/04 07:11:17;;;;;;;4.30;2.40;;;16.80;92.80;;;;;;5019668;28;20044;-69
2022/09/04 07:14:03;;;;;;;5.40;2.77;;;16.90;92.90;;;;;;5028507;28;20044;-70
2022/09/04 07:16:35;;;;;;;6.70;2.63;;;16.90;92.80;;;;;;5035543;28;20361;-69
2022/09/04 07:19:24;;;;;;;7.20;2.50;;;17.10;92.90;;;;;;5053244;28;20048;-70
2022/09/04 07:22:05;;;;;;;4.80;2.58;;;17.20;92.70;;;;;;4998206;28;20053;-70
2022/09/04 07:24:43;;;;;;;4.03;2.50;;;17.30;92.70;;;;;;5035370;28;20041;-70
2022/09/04 07:27:14;;;;;;;5.82;2.85;;;17.40;92.80;;;;;;5035481;28;20131;-70
2022/09/04 07:30:01;;;;;;;6.63;2.40;;;17.50;92.60;;;;;;5019243;28;20084;-69
2022/09/04 07:33:11;;;;;;;10.10;2.97;;;17.70;92.70;;;;;;5034885;28;20106;-70
2022/09/04 07:35:56;;;;;;;4.80;2.60;;;17.90;92.50;;;;;;5035195;28;20041;-69
2022/09/04 07:38:21;;;;;;;;;;;18.00;92.70;;;;;;5053309;28;20048;-70
2022/09/04 07:41:09;;;;;;;6.25;2.60;;;18.20;92.50;;;;;;5034724;28;20433;-69
2022/09/04 07:43:53;;;;;;;4.65;2.30;;;18.60;92.30;;;;;;5052624;28;20063;-70
2022/09/04 07:46:32;;;;;;;5.20;2.70;;;19.60;91.30;;;;;;5034939;28;20049;-69
2022/09/04 07:49:33;;;;;;;5.82;2.60;;;20.40;90.40;;;;;;5018491;28;20115;-70
2022/09/04 07:52:12;;;;;;;5.68;2.80;;;21.20;89.50;;;;;;5027143;28;20048;-69
2022/09/04 07:54:58;;;;;;;3.40;2.42;;;21.60;87.90;;;;;;5018384;28;20430;-70
2022/09/04 07:57:31;;;;;;;5.80;2.75;;;22.20;88.70;;;;;;5020773;28;20049;-70
2022/09/04 08:00:04;;;;;;;4.55;2.40;;;22.60;87.90;;;;;;5034980;28;20068;-69
2022/09/04 08:02:55;;;;;;;11.85;2.97;;;23.10;86.20;;;;;;5018079;28;20135;-70
2022/09/04 08:05:40;;;;;;;6.10;2.53;;;23.60;85.40;;;;;;5034754;28;20045;-69
2022/09/04 08:08:21;;;;;;;4.43;2.35;;;24.40;83.80;;;;;;5018485;28;20052;-70
2022/09/04 08:11:12;;;;;;;5.80;2.08;;;25.10;82.50;;;;;;5034876;28;20395;-68
2022/09/04 08:14:00;;;;;;;4.97;2.10;;;25.50;82.10;;;;;;5034427;28;20048;-69
2022/09/04 08:16:42;;;;;;;6.68;2.58;;;25.90;80.70;;;;;;5033953;28;20128;-70
2022/09/04 08:19:30;;;;;;;7.75;2.53;;;26.50;82.00;;;;;;5034637;28;20406;-69
2022/09/04 08:21:57;;;;;;;7.55;2.75;;;26.70;79.10;;;;;;5018090;28;20052;-69
2022/09/04 08:24:44;;;;;;;5.78;2.58;;;26.90;79.00;;;;;;5051717;28;20494;-70
2022/09/04 08:27:33;;;;;;;4.32;2.42;;;27.20;79.60;;;;;;5034619;28;20088;-69
2022/09/04 08:30:09;;;;;;;4.78;2.40;;;27.30;78.10;;;;;;5034470;28;20041;-68
2022/09/04 08:32:41;;;;;;;4.18;2.15;;;27.10;78.30;;;;;;5034056;28;20399;-69
2022/09/04 08:35:16;;;;;;;5.60;2.50;;;27.30;78.30;;;;;;5034404;28;20045;-69
2022/09/04 08:37:57;;;;;;;6.07;2.35;;;27.30;78.70;;;;;;5017655;28;20049;-70
2022/09/04 08:40:24;;;;;;;4.60;2.53;;;27.50;77.60;;;;;;5017263;28;20151;-71
2022/09/04 08:43:33;;;;;;;3.70;2.10;;;27.40;77.90;;;;;;5034242;28;20049;-69
2022/09/04 08:46:30;;;;;;;6.78;2.53;;;27.80;78.30;;;;;;5032910;28;20068;-68
2022/09/04 08:49:10;;;;;;;5.75;2.22;;;27.90;78.60;;;;;;5017672;28;20041;-68
2022/09/04 08:51:55;;;;;;;5.78;2.55;;;28.20;77.80;;;;;;5016878;28;20461;-68
2022/09/04 08:54:36;;;;;;;5.97;2.25;;;28.50;77.70;;;;;;5051384;28;20433;-66
2022/09/04 08:57:56;;;;;;;5.28;2.20;;;28.60;77.50;;;;;;5051511;28;20092;-67
2022/09/04 09:01:00;;;;;;;5.28;2.30;;;29.00;76.90;;;;;;4969771;28;20058;-68
2022/09/04 09:03:34;;;;;;;4.50;2.33;;;28.90;76.90;;;;;;5032529;28;20072;-68
2022/09/04 09:06:25;;;;;;;4.05;2.30;;;28.90;76.80;;;;;;5033250;28;20056;-68
2022/09/04 09:09:26;;;;;;;5.13;2.40;;;28.40;76.60;;;;;;5050844;28;20055;-68
2022/09/04 09:12:26;;;;;;;4.00;2.10;;;28.20;77.30;;;;;;5040001;28;20104;-68
2022/09/04 09:15:03;;;;;;;4.43;2.20;;;28.10;77.10;;;;;;5032998;28;20040;-67
2022/09/04 09:17:52;;;;;;;4.63;2.35;;;28.40;77.20;;;;;;5016562;28;20091;-68
2022/09/04 09:20:48;;;;;;;4.60;2.15;;;28.70;77.10;;;;;;5032770;28;20052;-68
2022/09/04 09:23:14;;;;;;;7.30;2.30;;;28.70;76.90;;;;;;5017159;28;20380;-67
2022/09/04 09:25:50;;;;;;;4.22;2.25;;;28.70;77.40;;;;;;5033464;28;20059;-68
2022/09/04 09:28:57;;;;;;;5.03;2.00;;;28.50;77.10;;;;;;5033521;28;20063;-67
2022/09/04 09:31:47;;;;;;;5.55;2.40;;;27.80;77.30;;;;;;5037089;28;20056;-67
2022/09/04 09:34:50;;;;;;;6.65;2.10;;;27.20;78.30;;;;;;5054620;28;20045;-68
2022/09/04 09:37:46;;;;;;;4.00;2.17;;;26.90;78.30;;;;;;5054905;28;20191;-68
2022/09/04 09:40:17;;;;;;;4.32;2.20;;;26.40;78.40;;;;;;5037445;28;20049;-67
2022/09/04 09:43:20;;;;;;;4.10;2.05;;;26.10;79.00;;;;;;5036894;28;20049;-69
2022/09/04 09:45:58;;;;;;;5.00;2.03;;;25.80;79.60;;;;;;5020398;28;20048;-66
2022/09/04 09:49:02;;;;;;;3.83;1.85;;;25.60;79.60;;;;;;5037571;28;20052;-67
2022/09/04 09:52:01;;;;;;;5.53;1.88;;;25.40;80.50;;;;;;5037498;28;20505;-68
2022/09/04 09:54:48;;;;;;;5.30;1.83;;;25.40;80.50;;;;;;5037317;28;20052;-71
2022/09/04 09:57:46;;;;;;;5.30;2.08;;;25.40;80.30;;;;;;5020746;28;20048;-68
2022/09/04 10:00:17;;;;;;;4.82;2.03;;;25.40;79.90;;;;;;5036100;28;20064;-67
2022/09/04 10:03:19;;;;;;;4.10;1.85;;;25.40;80.10;;;;;;5036205;28;20061;-68
2022/09/04 10:06:09;;;;;;;3.90;1.90;;;25.50;80.70;;;;;;5020263;28;20070;-68
2022/09/04 10:09:00;;;;;;;4.18;1.77;;;25.60;80.30;;;;;;5054653;28;20124;-69
2022/09/04 10:11:57;;;;;;;4.22;1.90;;;25.70;80.00;;;;;;5037078;28;20059;-68
2022/09/04 10:14:44;;;;;;;5.18;1.85;;;25.80;80.20;;;;;;4965815;28;20453;-68
2022/09/04 10:17:52;;;;;;;4.57;1.88;;;25.80;79.90;;;;;;5054674;28;20091;-68
2022/09/04 10:20:55;;;;;;;3.75;1.90;;;25.80;80.00;;;;;;5036999;28;20049;-68
2022/09/04 10:23:38;;;;;;;3.22;1.80;;;25.90;79.90;;;;;;5020179;28;20041;-67
2022/09/04 10:26:34;;;;;;;7.30;1.88;;;26.00;80.80;;;;;;5036801;28;20091;-67
2022/09/04 10:29:08;;;;;;;3.65;1.83;;;26.20;80.40;;;;;;5036466;28;20099;-67
2022/09/04 10:32:05;;;;;;;3.53;1.73;;;26.30;79.80;;;;;;5020208;28;20086;-69
2022/09/04 10:34:53;;;;;;;2.75;1.80;;;26.20;79.10;;;;;;5036580;28;20138;-69
2022/09/04 10:38:01;;;;;;;2.45;1.60;;;26.00;79.00;;;;;;5019933;28;20418;-68
2022/09/04 10:40:48;;;;;;;3.58;1.60;;;25.90;79.40;;;;;;5036330;28;20041;-68
2022/09/04 10:43:44;;;;;;;4.20;1.77;;;25.80;79.70;;;;;;5036289;28;20119;-70
2022/09/04 10:46:22;;;;;;;3.70;1.95;;;25.70;79.90;;;;;;5036208;28;20131;-69
2022/09/04 10:49:10;;;;;;;5.47;2.13;;;25.70;79.40;;;;;;5036069;28;20056;-69
2022/09/04 10:51:50;;;;;;;5.45;1.70;;;25.70;80.30;;;;;;5036481;28;20052;-71
2022/09/04 10:54:43;;;;;;;4.13;1.60;;;25.80;80.10;;;;;;5036225;28;20087;-69
2022/09/04 10:57:36;;;;;;;4.88;2.00;;;25.80;79.80;;;;;;5036347;28;20056;-69
2022/09/04 11:00:07;;;;;;;5.75;1.92;;;25.90;79.10;;;;;;5035832;28;20048;-69
2022/09/04 11:03:10;;;;;;;3.58;1.80;;;25.90;79.60;;;;;;5036006;28;20506;-70
2022/09/04 11:06:09;;;;;;;3.17;1.70;;;25.90;79.60;;;;;;5019601;28;20115;-70
2022/09/04 11:09:03;;;;;;;7.63;2.13;;;25.90;79.30;;;;;;5035859;28;20045;-71
2022/09/04 11:11:35;;;;;;;8.23;2.00;;;26.00;79.60;;;;;;5036192;28;20094;-70
2022/09/04 11:14:27;;;;;;;3.38;1.63;;;26.10;79.60;;;;;;5035708;28;20056;-69
2022/09/04 11:17:05;;;;;;;4.57;1.90;;;26.00;79.20;;;;;;5035607;28;20048;-70
2022/09/04 11:20:01;;;;;;;3.45;1.90;;;26.00;79.20;;;;;;5019490;28;20052;-69
2022/09/04 11:22:39;;;;;;;4.68;2.13;;;26.10;79.60;;;;;;5035598;28;20080;-69
2022/09/04 11:25:23;;;;;;;3.40;1.83;;;26.10;79.10;;;;;;5035466;28;20108;-69
2022/09/04 11:28:19;;;;;;;3.58;1.90;;;26.10;79.40;;;;;;5035087;28;20597;-71
2022/09/04 11:31:13;;;;;;;3.00;1.73;;;26.10;79.60;;;;;;5019109;28;20045;-77
2022/09/04 11:33:51;;;;;;;;;;;26.20;79.40;;;;;;5053766;28;20049;-71
2022/09/04 11:36:22;;;;;;;5.28;1.80;;;26.20;79.00;;;;;;5035575;28;20012;-69
2022/09/04 11:39:10;;;;;;;3.95;1.70;;;26.10;78.80;;;;;;5035159;28;20053;-69
2022/09/04 11:42:16;;;;;;;4.07;1.98;;;26.20;79.00;;;;;;5018737;28;20075;-71
2022/09/04 11:45:19;;;;;;;5.18;1.80;;;26.10;79.20;;;;;;5035051;28;20079;-70
2022/09/04 11:48:01;;;;;;;5.00;2.03;;;26.10;79.50;;;;;;5035077;28;20136;-69
2022/09/04 11:50:45;;;;;;;4.88;1.90;;;26.00;79.10;;;;;;5035049;28;20123;-69
2022/09/04 11:53:42;;;;;;;3.63;2.10;;;25.90;79.40;;;;;;5034117;28;20056;-70
2022/09/04 11:56:40;;;;;;;4.00;1.95;;;25.80;79.80;;;;;;5034597;28;20051;-68
2022/09/04 11:59:46;;;;;;;4.53;2.20;;;25.90;80.00;;;;;;5051517;28;20092;-68
2022/09/04 12:02:53;;;;;;;5.18;2.53;;;25.90;79.80;;;;;;5007560;28;20195;-70
2022/09/04 12:05:38;;;;;;;6.22;2.28;;;26.00;79.80;;;;;;5018552;28;20060;-69
2022/09/04 12:08:52;;;;;;;4.40;2.00;;;26.00;80.10;;;;;;5052317;28;20127;-69
2022/09/04 12:11:45;;;;;;;5.20;1.90;;;26.20;80.40;;;;;;5051586;28;20057;-69
2022/09/04 12:14:53;;;;;;;4.70;1.70;;;26.30;80.30;;;;;;5034671;28;20045;-69
2022/09/04 12:17:47;;;;;;;4.18;2.00;;;26.40;79.50;;;;;;5052678;28;20060;-70
2022/09/04 12:20:38;;;;;;;5.20;1.90;;;26.40;79.80;;;;;;5017843;28;20374;-69
2022/09/04 12:23:17;;;;;;;4.63;2.17;;;26.40;79.80;;;;;;5034342;28;20092;-70
2022/09/04 12:25:49;;;;;;;4.65;2.22;;;26.50;80.00;;;;;;5017960;28;20055;-68
2022/09/04 12:28:26;;;;;;;4.63;1.95;;;26.60;79.70;;;;;;5051681;28;20474;-68
2022/09/04 12:31:00;;;;;;;7.70;2.22;;;26.60;79.90;;;;;;5052059;28;20164;-69
2022/09/04 12:33:35;;;;;;;;;;;26.50;79.40;;;;;;5034848;28;20132;-69
2022/09/04 12:36:19;;;;;;;4.80;1.90;;;26.50;79.80;;;;;;5017148;28;20007;-68
2022/09/04 12:39:01;;;;;;;4.93;2.00;;;26.50;79.80;;;;;;5034506;28;20060;-69
2022/09/04 12:41:53;;;;;;;4.80;2.38;;;26.50;79.90;;;;;;5033985;28;20143;-67
2022/09/04 12:44:30;;;;;;;4.93;1.80;;;26.50;79.90;;;;;;5032488;28;20505;-69
2022/09/04 12:47:14;;;;;;;4.40;1.80;;;26.50;79.60;;;;;;5034005;28;20390;-73
2022/09/04 12:49:46;;;;;;;4.85;1.95;;;26.40;79.50;;;;;;5033848;28;20037;-70
2022/09/04 12:52:28;;;;;;;4.60;2.25;;;26.30;79.60;;;;;;5016762;28;20067;-71
2022/09/04 12:55:05;;;;;;;2.83;1.85;;;26.40;79.80;;;;;;5017362;28;20044;-70
2022/09/04 12:57:45;;;;;;;6.25;2.17;;;26.40;79.80;;;;;;5032496;28;20104;-70
2022/09/04 13:00:16;;;;;;;4.03;2.22;;;26.50;79.90;;;;;;5031818;28;20414;-71
2022/09/04 13:02:53;;;;;;;5.70;2.03;;;26.60;79.80;;;;;;5051721;28;20055;-71
2022/09/04 13:05:51;;;;;;;2.70;1.75;;;26.70;79.60;;;;;;5038891;28;20041;-70
2022/09/04 13:08:36;;;;;;;5.47;2.03;;;26.80;79.50;;;;;;5038224;28;20044;-70
2022/09/04 13:11:12;;;;;;;4.63;1.75;;;26.80;79.00;;;;;;5056646;28;20052;-72
2022/09/04 13:14:06;;;;;;;3.25;1.58;;;26.80;78.90;;;;;;5038998;28;20513;-72
2022/09/04 13:16:55;;;;;;;3.75;1.50;;;26.60;79.20;;;;;;5039155;28;20402;-71
2022/09/04 13:19:45;;;;;;;3.33;1.88;;;26.60;79.40;;;;;;5022091;28;20057;-71
2022/09/04 13:22:17;;;;;;;5.07;2.00;;;26.50;79.40;;;;;;5038413;28;20441;-70
2022/09/04 13:24:56;;;;;;;5.00;1.90;;;26.50;79.40;;;;;;5022751;28;20051;-72
2022/09/04 13:27:34;;;;;;;5.95;2.08;;;26.50;79.30;;;;;;5056545;28;20066;-71
2022/09/04 13:30:04;;;;;;;2.17;1.52;;;26.50;79.40;;;;;;5039331;28;20092;-72
2022/09/04 13:32:42;;;;;;;3.65;1.75;;;26.50;79.30;;;;;;5039086;28;20044;-72
2022/09/04 13:35:40;;;;;;;6.38;2.20;;;26.60;79.50;;;;;;5022264;28;20049;-72
2022/09/04 13:38:20;;;;;;;3.53;1.88;;;26.60;79.40;;;;;;5038407;28;20502;-72
2022/09/04 13:41:00;;;;;;;4.40;1.70;;;26.60;79.40;;;;;;5022521;28;20474;-72
2022/09/04 13:43:39;;;;;;;3.78;2.00;;;26.70;79.20;;;;;;5038780;28;20217;-71
2022/09/04 13:46:24;;;;;;;3.47;1.77;;;26.70;79.50;;;;;;5021992;28;20048;-75
2022/09/04 13:48:54;;;;;;;;;;;26.70;79.70;;;;;;5023079;28;20051;-72
2022/09/04 13:51:22;;;;;;;4.30;1.98;;;26.70;79.10;;;;;;5037446;28;19920;-71
2022/09/04 13:53:55;;;;;;;5.70;1.90;;;26.80;79.40;;;;;;5038664;28;20414;-71
2022/09/04 13:56:33;;;;;;;3.63;1.70;;;26.80;79.50;;;;;;5021976;28;20055;-71
2022/09/04 13:59:07;;;;;;;5.05;1.95;;;26.80;79.40;;;;;;5038758;28;20057;-71
2022/09/04 14:01:44;;;;;;;4.75;1.58;;;26.80;79.20;;;;;;5038958;28;20095;-73
2022/09/04 14:04:25;;;;;;;3.25;1.58;;;26.80;78.90;;;;;;5055734;28;20069;-71
2022/09/04 14:07:05;;;;;;;4.20;1.63;;;26.70;79.10;;;;;;5056578;28;20442;-72
2022/09/04 14:09:37;;;;;;;3.85;1.80;;;26.60;79.50;;;;;;5055797;28;20044;-71
2022/09/04 14:12:17;;;;;;;3.47;2.00;;;26.70;80.00;;;;;;5056018;28;20052;-71
2022/09/04 14:15:06;;;;;;;5.60;1.90;;;26.70;79.70;;;;;;5019984;28;20098;-71
2022/09/04 14:17:59;;;;;;;4.85;1.95;;;26.70;79.90;;;;;;5035458;28;20048;-72
2022/09/04 14:20:32;;;;;;;2.57;1.73;;;26.70;79.80;;;;;;5018459;28;20391;-72
2022/09/04 14:23:06;;;;;;;5.03;1.90;;;26.70;79.90;;;;;;5053029;28;20136;-71